sensor_id;sensor_type;location;lat;lon;timestamp;temperature;humidity
34574;DHT22;20809;49.594;8.734;2023-04-24T00:01:56;11.40;99.90
34574;DHT22;20809;49.594;8.734;2023-04-24T00:04:58;11.40;99.90
34574;DHT22;20809;49.594;8.734;2023-04-24T00:08:03;11.50;99.90
34574;DHT22;20809;49.594;8.734;2023-04-24T00:11:03;11.50;99.90
34574;DHT22;20809;49.594;8.734;2023-04-24T00:14:04;11.50;99.90
34574;DHT22;20809;49.594;8.734;2023-04-24T00:17:05;11.50;99.90
34574;DHT22;20809;49.594;8.734;2023-04-24T00:20:06;11.50;99.90
34574;DHT22;20809;49.594;8.734;2023-04-24T00:23:07;11.40;99.90
34574;DHT22;20809;49.594;8.734;2023-04-24T00:26:08;11.50;99.90
34574;DHT22;20809;49.594;8.734;2023-04-24T00:29:09;11.40;99.90
34574;DHT22;20809;49.594;8.734;2023-04-24T00:32:09;11.40;99.90
34574;DHT22;20809;49.594;8.734;2023-04-24T00:35:10;11.50;99.90
34574;DHT22;20809;49.594;8.734;2023-04-24T00:38:11;11.50;99.90
34574;DHT22;20809;49.594;8.734;2023-04-24T00:41:11;11.40;99.90
34574;DHT22;20809;49.594;8.734;2023-04-24T00:44:13;11.40;99.90
34574;DHT22;20809;49.594;8.734;2023-04-24T00:47:14;11.40;99.90
34574;DHT22;20809;49.594;8.734;2023-04-24T00:50:15;11.40;99.90
34574;DHT22;20809;49.594;8.734;2023-04-24T00:53:16;11.40;99.90
34574;DHT22;20809;49.594;8.734;2023-04-24T00:59:09;11.40;99.90
34574;DHT22;20809;49.594;8.734;2023-04-24T01:02:11;11.40;99.90
34574;DHT22;20809;49.594;8.734;2023-04-24T01:05:13;11.40;99.90
34574;DHT22;20809;49.594;8.734;2023-04-24T01:08:14;11.40;99.90
34574;DHT22;20809;49.594;8.734;2023-04-24T01:11:15;11.50;99.90
34574;DHT22;20809;49.594;8.734;2023-04-24T01:14:16;11.50;99.90
34574;DHT22;20809;49.594;8.734;2023-04-24T01:17:17;11.50;99.90
34574;DHT22;20809;49.594;8.734;2023-04-24T01:20:18;11.50;99.90
34574;DHT22;20809;49.594;8.734;2023-04-24T01:23:19;11.60;99.90
34574;DHT22;20809;49.594;8.734;2023-04-24T01:26:21;11.60;99.90
34574;DHT22;20809;49.594;8.734;2023-04-24T01:29:22;11.50;99.90
34574;DHT22;20809;49.594;8.734;2023-04-24T01:32:24;11.50;99.90
34574;DHT22;20809;49.594;8.734;2023-04-24T01:35:25;11.40;99.90
34574;DHT22;20809;49.594;8.734;2023-04-24T01:38:26;11.30;99.90
34574;DHT22;20809;49.594;8.734;2023-04-24T01:41:27;11.40;99.90
34574;DHT22;20809;49.594;8.734;2023-04-24T01:44:28;11.40;99.90
34574;DHT22;20809;49.594;8.734;2023-04-24T01:47:30;11.40;99.90
34574;DHT22;20809;49.594;8.734;2023-04-24T01:50:31;11.40;99.90
34574;DHT22;20809;49.594;8.734;2023-04-24T01:53:32;11.40;99.90
34574;DHT22;20809;49.594;8.734;2023-04-24T01:56:33;11.40;99.90
34574;DHT22;20809;49.594;8.734;2023-04-24T01:59:36;11.40;99.90
34574;DHT22;20809;49.594;8.734;2023-04-24T02:02:38;11.40;99.90
34574;DHT22;20809;49.594;8.734;2023-04-24T02:05:40;11.40;99.90
34574;DHT22;20809;49.594;8.734;2023-04-24T02:08:41;11.40;99.90
34574;DHT22;20809;49.594;8.734;2023-04-24T02:11:42;11.50;99.90
34574;DHT22;20809;49.594;8.734;2023-04-24T02:14:43;11.50;99.90
34574;DHT22;20809;49.594;8.734;2023-04-24T02:17:44;11.50;99.90
34574;DHT22;20809;49.594;8.734;2023-04-24T02:20:45;11.50;99.90
34574;DHT22;20809;49.594;8.734;2023-04-24T02:23:46;11.40;99.90
34574;DHT22;20809;49.594;8.734;2023-04-24T02:26:47;11.40;99.90
34574;DHT22;20809;49.594;8.734;2023-04-24T02:29:48;11.30;99.90
34574;DHT22;20809;49.594;8.734;2023-04-24T02:32:49;11.30;99.90
34574;DHT22;20809;49.594;8.734;2023-04-24T02:35:50;11.20;99.90
34574;DHT22;20809;49.594;8.734;2023-04-24T02:38:51;11.20;99.90
34574;DHT22;20809;49.594;8.734;2023-04-24T02:41:54;11.20;99.90
34574;DHT22;20809;49.594;8.734;2023-04-24T02:44:55;11.30;99.90
34574;DHT22;20809;49.594;8.734;2023-04-24T02:47:56;11.30;99.90
34574;DHT22;20809;49.594;8.734;2023-04-24T02:50:57;11.30;99.90
34574;DHT22;20809;49.594;8.734;2023-04-24T02:53:58;11.30;99.90
34574;DHT22;20809;49.594;8.734;2023-04-24T02:56:58;11.20;99.90
34574;DHT22;20809;49.594;8.734;2023-04-24T03:00:01;11.20;99.90
34574;DHT22;20809;49.594;8.734;2023-04-24T03:03:01;11.00;99.90
34574;DHT22;20809;49.594;8.734;2023-04-24T03:06:03;10.70;99.90
34574;DHT22;20809;49.594;8.734;2023-04-24T03:09:06;10.50;99.90
34574;DHT22;20809;49.594;8.734;2023-04-24T03:12:06;10.20;99.90
34574;DHT22;20809;49.594;8.734;2023-04-24T03:15:08;10.10;99.90
34574;DHT22;20809;49.594;8.734;2023-04-24T03:18:08;10.00;99.90
34574;DHT22;20809;49.594;8.734;2023-04-24T03:21:09;9.80;99.90
34574;DHT22;20809;49.594;8.734;2023-04-24T03:24:10;9.80;99.90
34574;DHT22;20809;49.594;8.734;2023-04-24T03:27:11;9.60;99.90
34574;DHT22;20809;49.594;8.734;2023-04-24T03:30:12;9.60;99.90
34574;DHT22;20809;49.594;8.734;2023-04-24T03:33:12;9.60;99.90
34574;DHT22;20809;49.594;8.734;2023-04-24T03:36:13;9.60;99.90
34574;DHT22;20809;49.594;8.734;2023-04-24T03:39:14;9.60;99.90
34574;DHT22;20809;49.594;8.734;2023-04-24T03:42:15;9.60;99.90
34574;DHT22;20809;49.594;8.734;2023-04-24T03:45:15;9.50;99.90
34574;DHT22;20809;49.594;8.734;2023-04-24T03:48:16;9.50;99.90
34574;DHT22;20809;49.594;8.734;2023-04-24T03:51:17;9.50;99.90
34574;DHT22;20809;49.594;8.734;2023-04-24T03:54:18;9.50;99.90
34574;DHT22;20809;49.594;8.734;2023-04-24T03:57:19;9.40;99.90
34574;DHT22;20809;49.594;8.734;2023-04-24T04:00:19;9.40;99.90
34574;DHT22;20809;49.594;8.734;2023-04-24T04:03:21;9.40;99.90
34574;DHT22;20809;49.594;8.734;2023-04-24T04:06:22;9.40;99.90
34574;DHT22;20809;49.594;8.734;2023-04-24T04:09:23;9.40;99.90
34574;DHT22;20809;49.594;8.734;2023-04-24T04:12:23;9.40;99.90
34574;DHT22;20809;49.594;8.734;2023-04-24T04:15:24;9.30;99.90
34574;DHT22;20809;49.594;8.734;2023-04-24T04:18:25;9.30;99.90
34574;DHT22;20809;49.594;8.734;2023-04-24T04:21:26;9.20;99.90
34574;DHT22;20809;49.594;8.734;2023-04-24T04:24:27;9.10;99.90
34574;DHT22;20809;49.594;8.734;2023-04-24T04:27:28;9.00;99.90
34574;DHT22;20809;49.594;8.734;2023-04-24T04:30:32;8.90;99.90
34574;DHT22;20809;49.594;8.734;2023-04-24T04:33:33;8.80;99.90
34574;DHT22;20809;49.594;8.734;2023-04-24T04:36:36;8.80;99.90
34574;DHT22;20809;49.594;8.734;2023-04-24T04:39:40;8.80;99.90
34574;DHT22;20809;49.594;8.734;2023-04-24T04:42:41;8.70;99.90
34574;DHT22;20809;49.594;8.734;2023-04-24T04:45:43;8.70;99.90
34574;DHT22;20809;49.594;8.734;2023-04-24T04:48:43;8.70;99.90
34574;DHT22;20809;49.594;8.734;2023-04-24T04:51:44;8.70;99.90
34574;DHT22;20809;49.594;8.734;2023-04-24T04:54:46;8.60;99.90
34574;DHT22;20809;49.594;8.734;2023-04-24T04:57:50;8.70;99.90
34574;DHT22;20809;49.594;8.734;2023-04-24T05:00:51;8.70;99.90
34574;DHT22;20809;49.594;8.734;2023-04-24T05:03:52;8.70;99.90
34574;DHT22;20809;49.594;8.734;2023-04-24T05:06:53;8.80;99.90
34574;DHT22;20809;49.594;8.734;2023-04-24T05:09:54;8.90;99.90
34574;DHT22;20809;49.594;8.734;2023-04-24T05:12:55;8.90;99.90
34574;DHT22;20809;49.594;8.734;2023-04-24T05:15:56;9.00;99.90
34574;DHT22;20809;49.594;8.734;2023-04-24T05:18:57;9.10;99.90
34574;DHT22;20809;49.594;8.734;2023-04-24T05:21:59;9.30;99.90
34574;DHT22;20809;49.594;8.734;2023-04-24T05:24:59;9.40;99.90
34574;DHT22;20809;49.594;8.734;2023-04-24T05:28:01;9.50;99.90
34574;DHT22;20809;49.594;8.734;2023-04-24T05:31:05;9.80;99.90
34574;DHT22;20809;49.594;8.734;2023-04-24T05:34:06;10.20;99.90
34574;DHT22;20809;49.594;8.734;2023-04-24T05:37:07;11.50;99.90
34574;DHT22;20809;49.594;8.734;2023-04-24T05:40:10;12.50;99.90
34574;DHT22;20809;49.594;8.734;2023-04-24T05:43:12;13.50;99.90
34574;DHT22;20809;49.594;8.734;2023-04-24T05:46:13;14.00;99.90
34574;DHT22;20809;49.594;8.734;2023-04-24T05:49:13;13.60;99.90
34574;DHT22;20809;49.594;8.734;2023-04-24T05:52:14;13.40;99.90
34574;DHT22;20809;49.594;8.734;2023-04-24T05:55:15;13.50;99.90
34574;DHT22;20809;49.594;8.734;2023-04-24T05:58:18;13.70;99.90
34574;DHT22;20809;49.594;8.734;2023-04-24T06:01:19;14.50;99.90
34574;DHT22;20809;49.594;8.734;2023-04-24T06:04:20;15.60;99.90
34574;DHT22;20809;49.594;8.734;2023-04-24T06:07:21;16.50;99.90
34574;DHT22;20809;49.594;8.734;2023-04-24T06:10:22;16.20;99.90
34574;DHT22;20809;49.594;8.734;2023-04-24T06:13:23;15.10;99.90
34574;DHT22;20809;49.594;8.734;2023-04-24T06:16:23;15.00;99.90
34574;DHT22;20809;49.594;8.734;2023-04-24T06:19:24;16.30;99.90
34574;DHT22;20809;49.594;8.734;2023-04-24T06:22:25;17.40;99.90
34574;DHT22;20809;49.594;8.734;2023-04-24T06:25:29;16.60;99.90
34574;DHT22;20809;49.594;8.734;2023-04-24T06:28:30;15.20;99.90
34574;DHT22;20809;49.594;8.734;2023-04-24T06:31:30;14.20;99.90
34574;DHT22;20809;49.594;8.734;2023-04-24T06:34:38;13.10;99.90
34574;DHT22;20809;49.594;8.734;2023-04-24T06:37:40;12.30;99.90
34574;DHT22;20809;49.594;8.734;2023-04-24T06:40:41;11.60;99.90
34574;DHT22;20809;49.594;8.734;2023-04-24T06:43:42;11.30;99.90
34574;DHT22;20809;49.594;8.734;2023-04-24T06:46:44;11.10;99.90
34574;DHT22;20809;49.594;8.734;2023-04-24T06:49:45;11.00;99.90
34574;DHT22;20809;49.594;8.734;2023-04-24T06:52:53;10.80;99.90
34574;DHT22;20809;49.594;8.734;2023-04-24T06:55:54;10.70;99.90
34574;DHT22;20809;49.594;8.734;2023-04-24T06:58:58;10.60;99.90
34574;DHT22;20809;49.594;8.734;2023-04-24T07:01:59;10.50;99.90
34574;DHT22;20809;49.594;8.734;2023-04-24T07:04:59;10.30;99.90
34574;DHT22;20809;49.594;8.734;2023-04-24T07:08:01;10.30;99.90
34574;DHT22;20809;49.594;8.734;2023-04-24T07:11:03;10.20;99.90
34574;DHT22;20809;49.594;8.734;2023-04-24T07:14:04;10.20;99.90
34574;DHT22;20809;49.594;8.734;2023-04-24T07:17:05;10.20;99.90
34574;DHT22;20809;49.594;8.734;2023-04-24T07:20:07;10.10;99.90
34574;DHT22;20809;49.594;8.734;2023-04-24T07:23:10;10.10;99.90
34574;DHT22;20809;49.594;8.734;2023-04-24T07:26:12;10.20;99.90
34574;DHT22;20809;49.594;8.734;2023-04-24T07:29:13;10.20;99.90
34574;DHT22;20809;49.594;8.734;2023-04-24T07:32:14;10.30;99.90
34574;DHT22;20809;49.594;8.734;2023-04-24T07:35:15;10.60;99.90
34574;DHT22;20809;49.594;8.734;2023-04-24T07:38:17;10.60;99.90
34574;DHT22;20809;49.594;8.734;2023-04-24T07:41:21;10.70;99.90
34574;DHT22;20809;49.594;8.734;2023-04-24T07:44:22;11.10;99.90
34574;DHT22;20809;49.594;8.734;2023-04-24T07:47:23;11.60;99.90
34574;DHT22;20809;49.594;8.734;2023-04-24T07:50:24;11.80;99.90
34574;DHT22;20809;49.594;8.734;2023-04-24T07:53:25;11.70;99.90
34574;DHT22;20809;49.594;8.734;2023-04-24T07:56:26;11.40;99.90
34574;DHT22;20809;49.594;8.734;2023-04-24T07:59:27;11.20;99.90
34574;DHT22;20809;49.594;8.734;2023-04-24T08:02:28;11.20;99.90
34574;DHT22;20809;49.594;8.734;2023-04-24T08:05:29;11.10;99.90
34574;DHT22;20809;49.594;8.734;2023-04-24T08:08:30;10.90;99.90
34574;DHT22;20809;49.594;8.734;2023-04-24T08:11:31;10.70;99.90
34574;DHT22;20809;49.594;8.734;2023-04-24T08:14:35;10.80;99.90
34574;DHT22;20809;49.594;8.734;2023-04-24T08:17:36;11.20;99.90
34574;DHT22;20809;49.594;8.734;2023-04-24T08:20:37;11.90;99.90
34574;DHT22;20809;49.594;8.734;2023-04-24T08:23:38;12.00;99.90
34574;DHT22;20809;49.594;8.734;2023-04-24T08:26:39;11.70;99.90
34574;DHT22;20809;49.594;8.734;2023-04-24T08:29:40;11.30;99.90
34574;DHT22;20809;49.594;8.734;2023-04-24T08:32:41;11.30;99.90
34574;DHT22;20809;49.594;8.734;2023-04-24T08:35:45;11.30;99.90
34574;DHT22;20809;49.594;8.734;2023-04-24T08:38:51;11.40;99.90
34574;DHT22;20809;49.594;8.734;2023-04-24T08:41:55;11.40;99.90
34574;DHT22;20809;49.594;8.734;2023-04-24T08:44:56;11.60;99.90
34574;DHT22;20809;49.594;8.734;2023-04-24T08:47:58;12.10;99.90
34574;DHT22;20809;49.594;8.734;2023-04-24T08:51:00;12.40;99.90
34574;DHT22;20809;49.594;8.734;2023-04-24T08:54:03;12.40;99.90
34574;DHT22;20809;49.594;8.734;2023-04-24T08:57:07;12.30;99.90
34574;DHT22;20809;49.594;8.734;2023-04-24T09:00:12;12.30;99.90
34574;DHT22;20809;49.594;8.734;2023-04-24T09:03:15;12.20;99.90
34574;DHT22;20809;49.594;8.734;2023-04-24T09:06:17;12.30;99.90
34574;DHT22;20809;49.594;8.734;2023-04-24T09:09:19;12.60;99.90
34574;DHT22;20809;49.594;8.734;2023-04-24T09:12:21;12.70;99.90
34574;DHT22;20809;49.594;8.734;2023-04-24T09:15:21;12.50;99.90
34574;DHT22;20809;49.594;8.734;2023-04-24T09:18:23;12.20;99.90
34574;DHT22;20809;49.594;8.734;2023-04-24T09:21:23;12.00;99.90
34574;DHT22;20809;49.594;8.734;2023-04-24T09:24:27;11.90;99.90
34574;DHT22;20809;49.594;8.734;2023-04-24T09:27:28;11.70;99.90
34574;DHT22;20809;49.594;8.734;2023-04-24T09:30:29;11.60;99.90
34574;DHT22;20809;49.594;8.734;2023-04-24T09:33:30;11.60;99.90
34574;DHT22;20809;49.594;8.734;2023-04-24T09:36:33;11.70;99.90
34574;DHT22;20809;49.594;8.734;2023-04-24T09:39:34;11.90;99.90
34574;DHT22;20809;49.594;8.734;2023-04-24T09:42:35;11.70;99.90
34574;DHT22;20809;49.594;8.734;2023-04-24T09:45:37;11.40;99.90
34574;DHT22;20809;49.594;8.734;2023-04-24T09:48:38;11.20;99.90
34574;DHT22;20809;49.594;8.734;2023-04-24T09:51:39;11.00;99.90
34574;DHT22;20809;49.594;8.734;2023-04-24T09:54:41;11.00;99.90
34574;DHT22;20809;49.594;8.734;2023-04-24T09:57:53;11.00;99.90
34574;DHT22;20809;49.594;8.734;2023-04-24T10:00:55;11.00;99.90
34574;DHT22;20809;49.594;8.734;2023-04-24T10:03:59;11.10;99.90
34574;DHT22;20809;49.594;8.734;2023-04-24T10:07:03;11.10;99.90
34574;DHT22;20809;49.594;8.734;2023-04-24T10:10:07;11.10;99.90
34574;DHT22;20809;49.594;8.734;2023-04-24T10:13:09;11.20;99.90
34574;DHT22;20809;49.594;8.734;2023-04-24T10:16:11;11.10;99.90
34574;DHT22;20809;49.594;8.734;2023-04-24T10:19:15;11.10;99.90
34574;DHT22;20809;49.594;8.734;2023-04-24T10:22:17;10.90;99.90
34574;DHT22;20809;49.594;8.734;2023-04-24T10:25:20;10.80;99.90
34574;DHT22;20809;49.594;8.734;2023-04-24T10:28:22;10.70;99.90
34574;DHT22;20809;49.594;8.734;2023-04-24T10:31:25;10.80;99.90
34574;DHT22;20809;49.594;8.734;2023-04-24T10:34:27;11.10;99.90
34574;DHT22;20809;49.594;8.734;2023-04-24T10:37:28;11.30;99.90
34574;DHT22;20809;49.594;8.734;2023-04-24T10:40:36;11.70;99.90
34574;DHT22;20809;49.594;8.734;2023-04-24T10:43:39;12.00;99.90
34574;DHT22;20809;49.594;8.734;2023-04-24T10:46:46;12.10;99.90
34574;DHT22;20809;49.594;8.734;2023-04-24T10:49:53;12.20;99.90
34574;DHT22;20809;49.594;8.734;2023-04-24T10:53:11;12.10;99.90
34574;DHT22;20809;49.594;8.734;2023-04-24T10:56:15;12.10;99.90
34574;DHT22;20809;49.594;8.734;2023-04-24T10:59:25;11.90;99.90
34574;DHT22;20809;49.594;8.734;2023-04-24T11:02:36;11.70;99.90
34574;DHT22;20809;49.594;8.734;2023-04-24T11:05:51;11.60;99.90
34574;DHT22;20809;49.594;8.734;2023-04-24T11:09:01;11.40;99.90
34574;DHT22;20809;49.594;8.734;2023-04-24T11:12:08;11.20;99.90
34574;DHT22;20809;49.594;8.734;2023-04-24T11:15:14;11.10;99.90
34574;DHT22;20809;49.594;8.734;2023-04-24T11:18:17;11.00;99.90
34574;DHT22;20809;49.594;8.734;2023-04-24T11:21:18;11.00;99.90
34574;DHT22;20809;49.594;8.734;2023-04-24T11:27:42;11.00;99.90
34574;DHT22;20809;49.594;8.734;2023-04-24T11:30:43;11.10;99.90
34574;DHT22;20809;49.594;8.734;2023-04-24T11:33:47;11.10;99.90
34574;DHT22;20809;49.594;8.734;2023-04-24T11:36:48;11.20;99.90
34574;DHT22;20809;49.594;8.734;2023-04-24T11:39:56;11.10;99.90
34574;DHT22;20809;49.594;8.734;2023-04-24T11:42:59;11.20;99.90
34574;DHT22;20809;49.594;8.734;2023-04-24T11:46:01;11.30;99.90
34574;DHT22;20809;49.594;8.734;2023-04-24T11:49:02;11.60;99.90
34574;DHT22;20809;49.594;8.734;2023-04-24T11:52:03;11.90;99.90
34574;DHT22;20809;49.594;8.734;2023-04-24T11:55:28;12.10;99.90
34574;DHT22;20809;49.594;8.734;2023-04-24T11:58:27;12.30;99.90
34574;DHT22;20809;49.594;8.734;2023-04-24T12:01:28;12.20;99.90
34574;DHT22;20809;49.594;8.734;2023-04-24T12:04:39;12.30;99.90
34574;DHT22;20809;49.594;8.734;2023-04-24T12:07:41;12.50;99.90
34574;DHT22;20809;49.594;8.734;2023-04-24T12:10:51;12.60;99.90
34574;DHT22;20809;49.594;8.734;2023-04-24T12:13:52;13.20;99.90
34574;DHT22;20809;49.594;8.734;2023-04-24T12:16:53;14.00;99.90
34574;DHT22;20809;49.594;8.734;2023-04-24T12:20:01;14.80;99.90
34574;DHT22;20809;49.594;8.734;2023-04-24T12:23:02;15.40;99.90
34574;DHT22;20809;49.594;8.734;2023-04-24T12:26:04;15.20;99.90
34574;DHT22;20809;49.594;8.734;2023-04-24T12:29:05;15.10;99.90
34574;DHT22;20809;49.594;8.734;2023-04-24T12:32:16;14.80;99.90
34574;DHT22;20809;49.594;8.734;2023-04-24T12:35:22;14.60;99.90
34574;DHT22;20809;49.594;8.734;2023-04-24T12:38:24;14.20;99.90
34574;DHT22;20809;49.594;8.734;2023-04-24T12:41:25;13.80;99.90
34574;DHT22;20809;49.594;8.734;2023-04-24T12:47:32;13.20;99.90
34574;DHT22;20809;49.594;8.734;2023-04-24T12:50:33;12.80;99.90
34574;DHT22;20809;49.594;8.734;2023-04-24T12:53:34;12.60;99.90
34574;DHT22;20809;49.594;8.734;2023-04-24T12:56:35;12.50;99.90
34574;DHT22;20809;49.594;8.734;2023-04-24T12:59:39;12.50;99.90
34574;DHT22;20809;49.594;8.734;2023-04-24T13:02:40;12.50;99.90
34574;DHT22;20809;49.594;8.734;2023-04-24T13:05:42;12.50;99.90
34574;DHT22;20809;49.594;8.734;2023-04-24T13:08:49;12.70;99.90
34574;DHT22;20809;49.594;8.734;2023-04-24T13:11:56;12.90;99.90
34574;DHT22;20809;49.594;8.734;2023-04-24T13:14:58;13.20;99.90
34574;DHT22;20809;49.594;8.734;2023-04-24T13:17:59;13.60;99.90
34574;DHT22;20809;49.594;8.734;2023-04-24T13:21:00;13.90;99.90
34574;DHT22;20809;49.594;8.734;2023-04-24T13:24:01;13.90;99.90
34574;DHT22;20809;49.594;8.734;2023-04-24T13:27:22;13.40;99.90
34574;DHT22;20809;49.594;8.734;2023-04-24T13:30:32;13.10;99.90
34574;DHT22;20809;49.594;8.734;2023-04-24T13:33:53;12.70;99.90
34574;DHT22;20809;49.594;8.734;2023-04-24T13:36:58;12.50;99.90
34574;DHT22;20809;49.594;8.734;2023-04-24T13:39:59;12.70;99.90
34574;DHT22;20809;49.594;8.734;2023-04-24T13:43:00;13.00;99.90
34574;DHT22;20809;49.594;8.734;2023-04-24T13:46:01;13.60;99.90
34574;DHT22;20809;49.594;8.734;2023-04-24T13:49:03;14.20;99.90
34574;DHT22;20809;49.594;8.734;2023-04-24T13:52:04;14.50;99.90
34574;DHT22;20809;49.594;8.734;2023-04-24T13:55:06;14.20;99.90
34574;DHT22;20809;49.594;8.734;2023-04-24T13:58:07;14.10;99.90
34574;DHT22;20809;49.594;8.734;2023-04-24T14:01:08;13.90;99.90
34574;DHT22;20809;49.594;8.734;2023-04-24T14:04:09;13.50;99.90
34574;DHT22;20809;49.594;8.734;2023-04-24T14:07:10;13.40;99.90
34574;DHT22;20809;49.594;8.734;2023-04-24T14:10:11;13.30;99.90
34574;DHT22;20809;49.594;8.734;2023-04-24T14:13:12;13.20;99.90
34574;DHT22;20809;49.594;8.734;2023-04-24T14:16:13;12.90;99.90
34574;DHT22;20809;49.594;8.734;2023-04-24T14:19:14;12.90;99.90
34574;DHT22;20809;49.594;8.734;2023-04-24T14:22:15;12.90;99.90
34574;DHT22;20809;49.594;8.734;2023-04-24T14:25:17;12.80;99.90
34574;DHT22;20809;49.594;8.734;2023-04-24T14:28:19;12.90;99.90
34574;DHT22;20809;49.594;8.734;2023-04-24T14:31:20;13.00;99.90
34574;DHT22;20809;49.594;8.734;2023-04-24T14:34:21;13.10;99.90
34574;DHT22;20809;49.594;8.734;2023-04-24T14:37:22;13.10;99.90
34574;DHT22;20809;49.594;8.734;2023-04-24T14:40:23;13.10;99.90
34574;DHT22;20809;49.594;8.734;2023-04-24T14:43:24;13.10;99.90
34574;DHT22;20809;49.594;8.734;2023-04-24T14:46:25;13.20;99.90
34574;DHT22;20809;49.594;8.734;2023-04-24T14:49:29;13.40;99.90
34574;DHT22;20809;49.594;8.734;2023-04-24T14:52:30;13.80;99.90
34574;DHT22;20809;49.594;8.734;2023-04-24T14:55:31;14.30;99.90
34574;DHT22;20809;49.594;8.734;2023-04-24T14:58:34;14.60;99.90
34574;DHT22;20809;49.594;8.734;2023-04-24T15:01:35;15.00;99.90
34574;DHT22;20809;49.594;8.734;2023-04-24T15:04:36;15.30;99.90
34574;DHT22;20809;49.594;8.734;2023-04-24T15:07:38;15.40;99.90
34574;DHT22;20809;49.594;8.734;2023-04-24T15:10:39;15.10;99.90
34574;DHT22;20809;49.594;8.734;2023-04-24T15:13:40;14.70;99.90
34574;DHT22;20809;49.594;8.734;2023-04-24T15:16:42;14.60;99.90
34574;DHT22;20809;49.594;8.734;2023-04-24T15:19:42;14.50;99.90
34574;DHT22;20809;49.594;8.734;2023-04-24T15:22:44;14.50;99.90
34574;DHT22;20809;49.594;8.734;2023-04-24T15:25:45;14.50;99.90
34574;DHT22;20809;49.594;8.734;2023-04-24T15:28:45;14.40;99.90
34574;DHT22;20809;49.594;8.734;2023-04-24T15:31:47;14.50;99.90
34574;DHT22;20809;49.594;8.734;2023-04-24T15:34:48;14.30;99.90
34574;DHT22;20809;49.594;8.734;2023-04-24T15:37:49;13.70;99.90
34574;DHT22;20809;49.594;8.734;2023-04-24T15:40:50;13.30;99.90
34574;DHT22;20809;49.594;8.734;2023-04-24T15:43:51;13.10;99.90
34574;DHT22;20809;49.594;8.734;2023-04-24T15:46:52;13.10;99.90
34574;DHT22;20809;49.594;8.734;2023-04-24T15:49:53;13.40;99.90
34574;DHT22;20809;49.594;8.734;2023-04-24T15:52:54;14.00;99.90
34574;DHT22;20809;49.594;8.734;2023-04-24T15:55:55;14.40;99.90
34574;DHT22;20809;49.594;8.734;2023-04-24T15:58:59;14.40;99.90
34574;DHT22;20809;49.594;8.734;2023-04-24T16:02:00;14.20;99.90
34574;DHT22;20809;49.594;8.734;2023-04-24T16:05:01;14.00;99.90
34574;DHT22;20809;49.594;8.734;2023-04-24T16:08:02;14.00;99.90
34574;DHT22;20809;49.594;8.734;2023-04-24T16:11:06;13.70;99.90
34574;DHT22;20809;49.594;8.734;2023-04-24T16:14:07;13.20;99.90
34574;DHT22;20809;49.594;8.734;2023-04-24T16:17:08;13.00;99.90
34574;DHT22;20809;49.594;8.734;2023-04-24T16:20:09;13.00;99.90
34574;DHT22;20809;49.594;8.734;2023-04-24T16:23:10;13.30;99.90
34574;DHT22;20809;49.594;8.734;2023-04-24T16:26:11;13.50;99.90
34574;DHT22;20809;49.594;8.734;2023-04-24T16:29:12;13.50;99.90
34574;DHT22;20809;49.594;8.734;2023-04-24T16:32:14;13.20;99.90
34574;DHT22;20809;49.594;8.734;2023-04-24T16:35:16;13.00;99.90
34574;DHT22;20809;49.594;8.734;2023-04-24T16:38:17;12.80;99.90
34574;DHT22;20809;49.594;8.734;2023-04-24T16:41:18;12.90;99.90
34574;DHT22;20809;49.594;8.734;2023-04-24T16:44:22;12.90;99.90
34574;DHT22;20809;49.594;8.734;2023-04-24T16:47:23;12.90;99.90
34574;DHT22;20809;49.594;8.734;2023-04-24T16:50:27;12.90;99.90
34574;DHT22;20809;49.594;8.734;2023-04-24T16:53:28;12.90;99.90
34574;DHT22;20809;49.594;8.734;2023-04-24T16:56:29;12.80;99.90
34574;DHT22;20809;49.594;8.734;2023-04-24T16:59:30;12.70;99.90
34574;DHT22;20809;49.594;8.734;2023-04-24T17:02:34;12.70;99.90
34574;DHT22;20809;49.594;8.734;2023-04-24T17:05:35;12.70;99.90
34574;DHT22;20809;49.594;8.734;2023-04-24T17:08:36;12.60;99.90
34574;DHT22;20809;49.594;8.734;2023-04-24T17:11:37;12.30;99.90
34574;DHT22;20809;49.594;8.734;2023-04-24T17:14:38;12.20;99.90
34574;DHT22;20809;49.594;8.734;2023-04-24T17:17:42;12.10;99.90
34574;DHT22;20809;49.594;8.734;2023-04-24T17:20:51;12.10;99.90
34574;DHT22;20809;49.594;8.734;2023-04-24T17:23:55;12.10;99.90
34574;DHT22;20809;49.594;8.734;2023-04-24T17:26:56;12.40;99.90
34574;DHT22;20809;49.594;8.734;2023-04-24T17:29:58;12.60;99.90
34574;DHT22;20809;49.594;8.734;2023-04-24T17:33:01;12.20;99.90
34574;DHT22;20809;49.594;8.734;2023-04-24T17:36:02;11.80;99.90
34574;DHT22;20809;49.594;8.734;2023-04-24T17:39:06;11.50;99.90
34574;DHT22;20809;49.594;8.734;2023-04-24T17:42:09;11.30;99.90
34574;DHT22;20809;49.594;8.734;2023-04-24T17:45:11;11.20;99.90
34574;DHT22;20809;49.594;8.734;2023-04-24T17:48:15;11.10;99.90
34574;DHT22;20809;49.594;8.734;2023-04-24T17:51:17;11.00;99.90
34574;DHT22;20809;49.594;8.734;2023-04-24T17:54:18;10.90;99.90
34574;DHT22;20809;49.594;8.734;2023-04-24T17:57:28;10.90;99.90
34574;DHT22;20809;49.594;8.734;2023-04-24T18:00:30;10.90;99.90
34574;DHT22;20809;49.594;8.734;2023-04-24T18:03:34;10.90;99.90
34574;DHT22;20809;49.594;8.734;2023-04-24T18:06:35;10.90;99.90
34574;DHT22;20809;49.594;8.734;2023-04-24T18:09:38;10.90;99.90
34574;DHT22;20809;49.594;8.734;2023-04-24T18:12:41;10.90;99.90
34574;DHT22;20809;49.594;8.734;2023-04-24T18:15:46;10.90;99.90
34574;DHT22;20809;49.594;8.734;2023-04-24T18:18:46;10.90;99.90
34574;DHT22;20809;49.594;8.734;2023-04-24T18:21:48;10.90;99.90
34574;DHT22;20809;49.594;8.734;2023-04-24T18:24:49;10.90;99.90
34574;DHT22;20809;49.594;8.734;2023-04-24T18:27:52;10.90;99.90
34574;DHT22;20809;49.594;8.734;2023-04-24T18:30:55;11.00;99.90
34574;DHT22;20809;49.594;8.734;2023-04-24T18:33:56;10.90;99.90
34574;DHT22;20809;49.594;8.734;2023-04-24T18:36:57;10.90;99.90
34574;DHT22;20809;49.594;8.734;2023-04-24T18:39:58;10.80;99.90
34574;DHT22;20809;49.594;8.734;2023-04-24T18:42:59;10.70;99.90
34574;DHT22;20809;49.594;8.734;2023-04-24T18:45:59;10.60;99.90
34574;DHT22;20809;49.594;8.734;2023-04-24T18:49:00;10.50;99.90
34574;DHT22;20809;49.594;8.734;2023-04-24T18:52:01;10.30;99.90
34574;DHT22;20809;49.594;8.734;2023-04-24T18:55:03;10.10;99.90
34574;DHT22;20809;49.594;8.734;2023-04-24T18:58:04;9.90;99.90
34574;DHT22;20809;49.594;8.734;2023-04-24T19:01:05;9.70;99.90
34574;DHT22;20809;49.594;8.734;2023-04-24T19:04:06;9.60;99.90
34574;DHT22;20809;49.594;8.734;2023-04-24T19:07:06;9.60;99.90
34574;DHT22;20809;49.594;8.734;2023-04-24T19:10:08;9.60;99.90
34574;DHT22;20809;49.594;8.734;2023-04-24T19:13:08;9.50;99.90
34574;DHT22;20809;49.594;8.734;2023-04-24T19:16:09;9.40;99.90
34574;DHT22;20809;49.594;8.734;2023-04-24T19:19:10;9.40;99.90
34574;DHT22;20809;49.594;8.734;2023-04-24T19:22:11;9.40;99.90